< < Back
Terminal Aerodrome Forecast


Current Version              Previous Versions:   1  2  3  4  5  6  7  8  9  

Terminal Aerodrome Forecast

701
FTUS42 KTAE 290524
TAFVLD
TAF
KVLD 290524Z 2906/3006 00000KT P6SM SCT070
     FM291800 VRB03KT P6SM VCTS SCT040CB
      TEMPO 2920/2924 VRB15G25KT 2SM +TSRA BKN030CB
     FM300100 VRB03KT P6SM BKN040=



Latest METAR

854
SAUS70 KWBC 290900 RRJ
MTRVLD
METAR KVLD 290853Z AUTO 00000KT 10SM CLR 25/24 A2992 RMK AO2 SLP138
T02500244 56012 TSNO


USA.gov is the U.S. government's official web portal to all federal, state and local government web resources and services.